METAR Data
IDs: Format: Raw Decoded Include TAF

Data at: 0018 UTC 30 May 2020

METAR for:KMIW (Marshalltown Muni, IA, US)
Text:KMIW 292353Z AUTO 34012G19KT 10SM CLR 20/08 A3011 RMK AO2 SLP196 T02000083 10200 20167 58003
Temperature: 20.0°C ( 68°F)
Dewpoint: 8.3°C ( 47°F) [RH = 47%]
Pressure (altimeter):30.11 inches Hg (1019.7 mb) [Sea level pressure: 1019.6 mb]
Winds:from the NNW (340 degrees) at 14 MPH (12 knots; 6.2 m/s) gusting to 22 MPH (19 knots; 9.8 m/s)
Visibility:10 or more sm (16+ km)
Ceiling:at least 12,000 feet AGL
Clouds:sky clear below 12,000 feet AGL
QC Flag:automated observation with no human augmentation